createdAt,value
2022-09-22T00:01:31.816Z,95493.00
2022-09-22T00:04:01.575Z,95488.41
2022-09-22T00:06:31.310Z,95495.50
2022-09-22T00:09:01.992Z,95501.09
2022-09-22T00:11:30.983Z,95500.91
2022-09-22T00:14:00.420Z,95505.03
2022-09-22T00:16:29.732Z,95489.66
2022-09-22T00:18:57.647Z,95503.00
2022-09-22T00:21:27.928Z,95492.16
2022-09-22T00:23:56.270Z,95488.19
2022-09-22T00:26:25.994Z,95487.59
2022-09-22T00:28:53.988Z,95480.09
2022-09-22T00:31:23.880Z,95478.41
2022-09-22T00:33:51.866Z,95475.94
2022-09-22T00:36:22.054Z,95475.50
2022-09-22T00:38:51.369Z,95482.59
2022-09-22T00:41:20.949Z,95475.50
2022-09-22T00:43:51.471Z,95473.25
2022-09-22T00:46:21.944Z,95469.28
2022-09-22T00:48:51.606Z,95471.97
2022-09-22T00:51:23.657Z,95468.84
2022-09-22T00:53:52.046Z,95460.13
2022-09-22T00:56:22.496Z,95457.63
2022-09-22T00:58:54.969Z,95459.28
2022-09-22T01:01:22.870Z,95449.94
2022-09-22T01:03:51.589Z,95448.03
2022-09-22T01:06:22.869Z,95448.44
2022-09-22T01:08:50.886Z,95444.09
2022-09-22T01:11:20.738Z,95442.44
2022-09-22T01:13:54.880Z,95436.59
2022-09-22T01:16:36.019Z,95438.88
2022-09-22T01:19:21.311Z,95428.66
2022-09-22T01:21:52.119Z,95428.84
2022-09-22T01:24:55.269Z,95433.84
2022-09-22T01:27:31.915Z,95425.94
2022-09-22T01:30:19.778Z,95433.84
2022-09-22T01:33:10.858Z,95414.91
2022-09-22T01:35:46.165Z,95412.63
2022-09-22T01:38:18.148Z,95420.75
2022-09-22T01:40:50.722Z,95417.22
2022-09-22T01:43:25.003Z,95421.53
2022-09-22T01:45:55.185Z,95419.88
2022-09-22T01:48:25.904Z,95411.59
2022-09-22T01:50:56.433Z,95411.19
2022-09-22T01:53:27.373Z,95422.59
2022-09-22T01:55:57.996Z,95428.75
2022-09-22T01:58:30.113Z,95425.38
2022-09-22T02:01:02.125Z,95421.13
2022-09-22T02:03:36.372Z,95427.13
2022-09-22T02:06:07.408Z,95429.59
2022-09-22T02:08:38.048Z,95427.50
2022-09-22T02:11:10.897Z,95426.88
2022-09-22T02:13:38.839Z,95421.06
2022-09-22T02:16:09.067Z,95422.69
2022-09-22T02:18:41.955Z,95417.66
2022-09-22T02:21:10.067Z,95413.50
2022-09-22T02:23:38.056Z,95416.84
2022-09-22T02:26:07.122Z,95422.44
2022-09-22T02:28:37.829Z,95422.00
2022-09-22T02:31:24.819Z,95417.47
2022-09-22T02:33:53.199Z,95418.94
2022-09-22T02:36:35.909Z,95422.28
2022-09-22T02:39:08.398Z,95418.09
2022-09-22T02:41:42.083Z,95423.88
2022-09-22T02:44:15.056Z,95414.25
2022-09-22T02:46:47.621Z,95420.09
2022-09-22T02:49:18.203Z,95420.09
2022-09-22T02:51:47.058Z,95424.41
2022-09-22T02:54:15.338Z,95427.47
2022-09-22T02:56:43.525Z,95424.13
2022-09-22T02:59:11.487Z,95423.75
2022-09-22T03:01:39.675Z,95422.69
2022-09-22T03:04:09.037Z,95424.00
2022-09-22T03:06:36.800Z,95425.44
2022-09-22T03:09:05.116Z,95423.84
2022-09-22T03:11:33.047Z,95423.84
2022-09-22T03:14:00.981Z,95420.28
2022-09-22T03:16:30.172Z,95423.84
2022-09-22T03:18:58.500Z,95428.38
2022-09-22T03:21:27.703Z,95430.41
2022-09-22T03:23:55.430Z,95426.50
2022-09-22T03:26:23.099Z,95425.81
2022-09-22T03:28:50.892Z,95426.50
2022-09-22T03:31:18.776Z,95420.66
2022-09-22T03:33:51.907Z,95415.94
2022-09-22T03:36:20.462Z,95415.09
2022-09-22T03:38:50.023Z,95401.59
2022-09-22T03:41:17.892Z,95408.03
2022-09-22T03:43:45.705Z,95403.03
2022-09-22T03:46:14.396Z,95411.31
2022-09-22T03:48:45.149Z,95414.66
2022-09-22T03:51:13.255Z,95409.25
2022-09-22T03:53:41.386Z,95416.91
2022-09-22T03:56:13.099Z,95421.88
2022-09-22T03:58:41.736Z,95425.97
2022-09-22T04:01:11.229Z,95416.19
2022-09-22T04:03:39.433Z,95419.47
2022-09-22T04:06:08.031Z,95420.50
2022-09-22T04:08:35.727Z,95421.75
2022-09-22T04:11:03.727Z,95426.50
2022-09-22T04:13:32.828Z,95424.81
2022-09-22T04:16:00.380Z,95426.69
2022-09-22T04:18:29.465Z,95423.13
2022-09-22T04:20:58.290Z,95412.56
2022-09-22T04:23:26.422Z,95419.00
2022-09-22T04:25:54.494Z,95420.88
2022-09-22T04:28:25.086Z,95417.31
2022-09-22T04:30:54.256Z,95420.81
2022-09-22T04:33:22.246Z,95423.88
2022-09-22T04:35:50.131Z,95420.75
2022-09-22T04:38:18.219Z,95423.88
2022-09-22T04:40:46.138Z,95430.53
2022-09-22T04:43:13.991Z,95424.56
2022-09-22T04:45:45.126Z,95429.38
2022-09-22T04:48:14.174Z,95426.50
2022-09-22T04:50:47.187Z,95429.78
2022-09-22T04:53:15.798Z,95441.31
2022-09-22T04:55:43.391Z,95433.25
2022-09-22T04:58:11.356Z,95433.25
2022-09-22T05:00:39.189Z,95449.22
2022-09-22T05:03:09.316Z,95448.78
2022-09-22T05:05:38.522Z,95450.84
2022-09-22T05:08:07.666Z,95447.28
2022-09-22T05:10:36.742Z,95449.09
2022-09-22T05:13:05.747Z,95451.34
2022-09-22T05:15:34.663Z,95450.53
2022-09-22T05:18:02.493Z,95445.34
2022-09-22T05:20:30.121Z,95442.44
2022-09-22T05:22:59.176Z,95446.16
2022-09-22T05:25:26.813Z,95451.34
2022-09-22T05:27:56.226Z,95447.78
2022-09-22T05:30:25.927Z,95447.53
2022-09-22T05:32:53.933Z,95448.16
2022-09-22T05:35:23.447Z,95454.44
2022-09-22T05:37:53.655Z,95456.38
2022-09-22T05:40:24.929Z,95462.63
2022-09-22T05:42:53.995Z,95459.16
2022-09-22T05:45:22.541Z,95461.47
2022-09-22T05:47:50.305Z,95467.13
2022-09-22T05:50:19.387Z,95464.66
2022-09-22T05:52:46.992Z,95458.09
2022-09-22T05:55:15.147Z,95457.94
2022-09-22T05:57:44.626Z,95462.19
2022-09-22T06:00:27.816Z,95458.66
2022-09-22T06:02:55.572Z,95456.47
2022-09-22T06:05:23.349Z,95460.03
2022-09-22T06:07:59.629Z,95466.53
2022-09-22T06:10:27.543Z,95461.59
2022-09-22T06:13:00.197Z,95465.63
2022-09-22T06:15:28.615Z,95464.00
2022-09-22T06:17:56.439Z,95466.13
2022-09-22T06:20:24.225Z,95461.38
2022-09-22T06:22:51.887Z,95469.31
2022-09-22T06:25:19.458Z,95465.81
2022-09-22T06:27:47.206Z,95467.72
2022-09-22T06:30:16.325Z,95459.66
2022-09-22T06:32:46.001Z,95460.31
2022-09-22T06:35:13.563Z,95461.53
2022-09-22T06:37:41.778Z,95472.72
2022-09-22T06:40:12.963Z,95465.47
2022-09-22T06:42:44.249Z,95463.84
2022-09-22T06:45:14.681Z,95464.69
2022-09-22T06:47:43.593Z,95468.25
2022-09-22T06:50:11.188Z,95461.16
2022-09-22T06:52:38.880Z,95462.41
2022-09-22T06:55:07.463Z,95458.22
2022-09-22T06:57:35.012Z,95463.41
2022-09-22T07:00:03.787Z,95458.59
2022-09-22T07:02:31.399Z,95455.63
2022-09-22T07:05:00.366Z,95465.41
2022-09-22T07:07:28.826Z,95455.34
2022-09-22T07:09:56.848Z,95458.38
2022-09-22T07:12:25.388Z,95454.38
2022-09-22T07:14:54.131Z,95454.06
2022-09-22T07:17:21.689Z,95446.69
2022-09-22T07:19:51.100Z,95449.84
2022-09-22T07:22:20.208Z,95451.88
2022-09-22T07:24:47.795Z,95438.38
2022-09-22T07:27:20.447Z,95442.88
2022-09-22T07:29:48.828Z,95446.75
2022-09-22T07:32:16.444Z,95445.59
2022-09-22T07:34:45.075Z,95449.25
2022-09-22T07:37:15.768Z,95444.13
2022-09-22T07:39:45.270Z,95441.19
2022-09-22T07:42:12.995Z,95443.19
2022-09-22T07:44:57.956Z,95438.66
2022-09-22T07:47:39.489Z,95442.59
2022-09-22T07:50:07.756Z,95443.31
2022-09-22T07:52:35.357Z,95444.16
2022-09-22T07:55:04.509Z,95445.88
2022-09-22T07:57:32.552Z,95439.88
2022-09-22T08:00:00.418Z,95434.31
2022-09-22T08:02:29.159Z,95430.97
2022-09-22T08:05:02.820Z,95438.75
2022-09-22T08:07:31.351Z,95434.22
2022-09-22T08:09:59.182Z,95436.41
2022-09-22T08:12:28.413Z,95439.91
2022-09-22T08:14:57.960Z,95438.59
2022-09-22T08:17:25.624Z,95438.97
2022-09-22T08:19:53.244Z,95440.41
2022-09-22T08:22:20.841Z,95429.41
2022-09-22T08:24:48.387Z,95439.84
2022-09-22T08:27:15.987Z,95437.03
2022-09-22T08:29:44.900Z,95430.25
2022-09-22T08:32:12.494Z,95426.25
2022-09-22T08:34:40.083Z,95428.91
2022-09-22T08:37:07.689Z,95435.78
2022-09-22T08:39:36.686Z,95433.00
2022-09-22T08:42:10.191Z,95428.19
2022-09-22T08:44:41.241Z,95418.44
2022-09-22T08:47:17.635Z,95420.41
2022-09-22T08:50:05.855Z,95419.13
2022-09-22T08:52:38.936Z,95428.56
2022-09-22T08:55:08.512Z,95421.22
2022-09-22T08:57:56.983Z,95420.97
2022-09-22T09:00:25.648Z,95413.91
2022-09-22T09:03:03.113Z,95418.47
2022-09-22T09:05:50.883Z,95417.56
2022-09-22T09:08:32.601Z,95410.59
2022-09-22T09:11:08.131Z,95418.56
2022-09-22T09:13:46.315Z,95412.25
2022-09-22T09:16:28.607Z,95414.34
2022-09-22T09:19:01.897Z,95408.91
2022-09-22T09:21:30.192Z,95412.53
2022-09-22T09:26:52.240Z,95399.41
2022-09-22T09:29:24.112Z,95397.03
2022-09-22T09:31:53.508Z,95402.16
2022-09-22T09:34:24.258Z,95403.63
2022-09-22T09:36:55.489Z,95401.13
2022-09-22T09:39:29.215Z,95398.13
2022-09-22T09:41:57.374Z,95400.44
2022-09-22T09:44:29.678Z,95398.81
2022-09-22T09:47:03.239Z,95399.44
2022-09-22T09:49:32.316Z,95402.28
2022-09-22T09:52:02.359Z,95395.72
2022-09-22T09:54:30.913Z,95399.00
2022-09-22T09:57:10.219Z,95394.50
2022-09-22T09:59:56.692Z,95386.41
2022-09-22T10:02:27.430Z,95384.84
2022-09-22T10:04:57.327Z,95387.59
2022-09-22T10:07:27.062Z,95392.53
2022-09-22T10:09:56.055Z,95390.41
2022-09-22T10:12:28.579Z,95378.38
2022-09-22T10:14:57.473Z,95384.47
2022-09-22T10:17:29.117Z,95378.38
2022-09-22T10:20:17.926Z,95376.53
2022-09-22T10:22:45.588Z,95373.78
2022-09-22T10:25:22.678Z,95369.22
2022-09-22T10:28:14.531Z,95366.84
2022-09-22T10:30:43.592Z,95367.41
2022-09-22T10:33:17.224Z,95369.94
2022-09-22T10:35:47.410Z,95374.50
2022-09-22T10:38:22.798Z,95370.47
2022-09-22T10:40:56.389Z,95366.34
2022-09-22T10:43:35.527Z,95369.13
2022-09-22T10:46:17.100Z,95374.34
2022-09-22T10:48:48.841Z,95366.34
2022-09-22T10:51:28.348Z,95361.41
2022-09-22T10:54:14.284Z,95360.84
2022-09-22T10:56:44.765Z,95361.97
2022-09-22T10:59:33.574Z,95362.25
2022-09-22T11:02:18.187Z,95364.69
2022-09-22T11:04:55.612Z,95362.50
2022-09-22T11:08:06.830Z,95357.03
2022-09-22T11:10:56.525Z,95358.66
2022-09-22T11:13:34.977Z,95355.38
2022-09-22T11:16:35.247Z,95356.47
2022-09-22T11:19:40.282Z,95354.19
2022-09-22T11:22:27.394Z,95354.19
2022-09-22T11:25:08.619Z,95348.25
2022-09-22T11:27:46.008Z,95352.31
2022-09-22T11:30:20.421Z,95347.06
2022-09-22T11:33:13.182Z,95346.38
2022-09-22T11:35:45.889Z,95348.34
2022-09-22T11:38:24.321Z,95352.94
2022-09-22T11:41:14.061Z,95347.63
2022-09-22T11:43:52.640Z,95340.91
2022-09-22T11:46:24.241Z,95351.81
2022-09-22T11:49:03.860Z,95339.78
2022-09-22T11:51:55.946Z,95340.28
2022-09-22T11:54:32.241Z,95339.38
2022-09-22T11:57:04.465Z,95340.94
2022-09-22T11:59:34.424Z,95339.19
2022-09-22T12:02:05.965Z,95332.53
2022-09-22T12:04:38.607Z,95330.38
2022-09-22T12:07:10.348Z,95324.44
2022-09-22T12:09:40.811Z,95332.56
2022-09-22T12:12:13.184Z,95323.41
2022-09-22T12:14:41.574Z,95326.69
2022-09-22T12:17:12.611Z,95315.72
2022-09-22T12:19:49.937Z,95320.84
2022-09-22T12:22:22.717Z,95317.41
2022-09-22T12:24:50.512Z,95316.28
2022-09-22T12:27:22.400Z,95312.41
2022-09-22T12:29:57.969Z,95308.63
2022-09-22T12:32:35.400Z,95317.44
2022-09-22T12:35:03.323Z,95314.91
2022-09-22T12:37:32.919Z,95305.22
2022-09-22T12:40:07.999Z,95300.72
2022-09-22T12:42:38.370Z,95303.63
2022-09-22T12:45:11.189Z,95302.94
2022-09-22T12:47:40.739Z,95303.19
2022-09-22T12:50:32.923Z,95295.09
2022-09-22T12:53:04.343Z,95288.47
2022-09-22T12:55:38.407Z,95291.91
2022-09-22T12:58:43.684Z,95292.00
2022-09-22T13:01:34.600Z,95295.91
2022-09-22T13:04:17.362Z,95292.03
2022-09-22T13:06:58.957Z,95292.31
2022-09-22T13:09:29.958Z,95288.09
2022-09-22T13:12:21.536Z,95293.66
2022-09-22T13:15:20.855Z,95286.97
2022-09-22T13:17:49.544Z,95282.06
2022-09-22T13:20:20.256Z,95291.38
2022-09-22T13:22:47.918Z,95286.69
2022-09-22T13:25:26.926Z,95288.22
2022-09-22T13:28:10.575Z,95286.31
2022-09-22T13:30:40.562Z,95289.28
2022-09-22T13:33:18.974Z,95283.69
2022-09-22T13:35:46.746Z,95288.44
2022-09-22T13:38:15.681Z,95283.84
2022-09-22T13:40:47.975Z,95284.38
2022-09-22T13:43:22.970Z,95280.16
2022-09-22T13:45:52.717Z,95282.59
2022-09-22T13:48:21.204Z,95282.53
2022-09-22T13:50:52.032Z,95280.09
2022-09-22T13:53:20.335Z,95272.50
2022-09-22T13:55:49.728Z,95270.91
2022-09-22T13:58:23.591Z,95263.91
2022-09-22T14:01:14.351Z,95262.56
2022-09-22T14:03:42.558Z,95262.97
2022-09-22T14:06:11.779Z,95261.47
2022-09-22T14:08:39.679Z,95260.63
2022-09-22T14:11:12.481Z,95254.94
2022-09-22T14:13:42.235Z,95257.63
2022-09-22T14:16:18.076Z,95258.44
2022-09-22T14:18:48.797Z,95249.38
2022-09-22T14:21:16.608Z,95251.00
2022-09-22T14:23:45.697Z,95256.22
2022-09-22T14:26:33.254Z,95252.59
2022-09-22T14:29:09.245Z,95248.22
2022-09-22T14:31:39.977Z,95250.66
2022-09-22T14:34:09.304Z,95253.38
2022-09-22T14:36:37.856Z,95246.25
2022-09-22T14:39:09.971Z,95249.03
2022-09-22T14:41:39.434Z,95245.72
2022-09-22T14:44:26.435Z,95244.72
2022-09-22T14:46:57.308Z,95238.13
2022-09-22T14:49:39.446Z,95245.00
2022-09-22T14:52:08.687Z,95234.88
2022-09-22T14:54:38.979Z,95241.75
2022-09-22T14:57:08.775Z,95236.56
2022-09-22T14:59:52.083Z,95239.59
2022-09-22T15:02:33.370Z,95231.91
2022-09-22T15:05:03.428Z,95239.34
2022-09-22T15:07:32.679Z,95240.75
2022-09-22T15:10:02.440Z,95237.72
2022-09-22T15:12:37.896Z,95240.50
2022-09-22T15:15:16.537Z,95239.94
2022-09-22T15:18:04.116Z,95240.50
2022-09-22T15:20:38.691Z,95237.19
2022-09-22T15:23:06.449Z,95236.09
2022-09-22T15:25:34.056Z,95238.88
2022-09-22T15:28:06.581Z,95235.31
2022-09-22T15:30:34.198Z,95230.91
2022-09-22T15:33:03.808Z,95236.41
2022-09-22T15:35:34.552Z,95232.28
2022-09-22T15:38:02.216Z,95240.25
2022-09-22T15:40:30.078Z,95237.75
2022-09-22T15:43:12.313Z,95238.31
2022-09-22T15:45:47.662Z,95237.22
2022-09-22T15:48:26.084Z,95243.81
2022-09-22T15:50:54.602Z,95239.97
2022-09-22T15:53:23.004Z,95234.13
2022-09-22T15:55:51.322Z,95237.72
2022-09-22T15:58:19.369Z,95237.13
2022-09-22T16:00:48.288Z,95238.50
2022-09-22T16:03:22.274Z,95238.75
2022-09-22T16:05:52.445Z,95242.03
2022-09-22T16:08:20.800Z,95236.56
2022-09-22T16:10:48.428Z,95236.53
2022-09-22T16:13:16.064Z,95239.81
2022-09-22T16:15:43.720Z,95240.88
2022-09-22T16:18:11.326Z,95239.19
2022-09-22T16:20:39.036Z,95238.09
2022-09-22T16:23:08.005Z,95238.88
2022-09-22T16:25:35.665Z,95241.88
2022-09-22T16:28:03.657Z,95240.16
2022-09-22T16:30:31.238Z,95243.41
2022-09-22T16:32:58.822Z,95240.09
2022-09-22T16:35:26.405Z,95242.25
2022-09-22T16:37:57.153Z,95243.56
2022-09-22T16:40:28.723Z,95244.72
2022-09-22T16:42:56.440Z,95243.63
2022-09-22T16:45:38.966Z,95238.69
2022-09-22T16:48:07.356Z,95240.81
2022-09-22T16:50:39.373Z,95245.44
2022-09-22T16:53:11.139Z,95238.88
2022-09-22T16:55:40.274Z,95235.81
2022-09-22T16:58:13.081Z,95246.41
2022-09-22T17:00:40.784Z,95246.06
2022-09-22T17:03:08.446Z,95246.78
2022-09-22T17:05:37.969Z,95252.78
2022-09-22T17:08:06.919Z,95254.63
2022-09-22T17:10:35.533Z,95242.84
2022-09-22T17:13:05.229Z,95252.53
2022-09-22T17:15:35.645Z,95249.34
2022-09-22T17:18:04.132Z,95249.84
2022-09-22T17:20:31.800Z,95251.91
2022-09-22T17:22:59.423Z,95255.59
2022-09-22T17:25:29.248Z,95254.13
2022-09-22T17:27:57.670Z,95253.19
2022-09-22T17:30:26.920Z,95248.25
2022-09-22T17:32:54.744Z,95250.91
2022-09-22T17:35:22.698Z,95247.13
2022-09-22T17:37:52.236Z,95249.16
2022-09-22T17:40:19.957Z,95258.09
2022-09-22T17:42:48.353Z,95252.50
2022-09-22T17:45:17.419Z,95259.97
2022-09-22T17:48:04.120Z,95264.44
2022-09-22T17:50:49.262Z,95258.06
2022-09-22T17:53:34.788Z,95262.63
2022-09-22T17:56:05.154Z,95264.81
2022-09-22T17:58:33.490Z,95265.44
2022-09-22T18:01:01.170Z,95262.63
2022-09-22T18:03:30.264Z,95264.75
2022-09-22T18:05:58.339Z,95267.41
2022-09-22T18:08:26.263Z,95267.09
2022-09-22T18:10:54.433Z,95263.94
2022-09-22T18:13:22.718Z,95265.78
2022-09-22T18:15:50.934Z,95263.19
2022-09-22T18:18:18.583Z,95262.25
2022-09-22T18:20:48.378Z,95264.06
2022-09-22T18:23:16.716Z,95265.06
2022-09-22T18:25:44.410Z,95263.28
2022-09-22T18:28:12.109Z,95262.31
2022-09-22T18:30:43.377Z,95267.66
2022-09-22T18:33:13.478Z,95272.59
2022-09-22T18:35:45.444Z,95264.09
2022-09-22T18:38:15.239Z,95263.78
2022-09-22T18:40:42.975Z,95270.94
2022-09-22T18:43:10.920Z,95274.13
2022-09-22T18:45:38.589Z,95268.59
2022-09-22T18:48:07.826Z,95272.94
2022-09-22T18:50:35.820Z,95276.41
2022-09-22T18:53:03.625Z,95273.22
2022-09-22T18:55:32.811Z,95276.81
2022-09-22T18:58:01.096Z,95283.22
2022-09-22T19:00:28.925Z,95279.69
2022-09-22T19:02:56.941Z,95278.03
2022-09-22T19:05:24.906Z,95277.91
2022-09-22T19:07:53.523Z,95282.78
2022-09-22T19:10:21.841Z,95279.56
2022-09-22T19:12:51.125Z,95278.38
2022-09-22T19:15:19.488Z,95279.53
2022-09-22T19:17:49.424Z,95285.31
2022-09-22T19:20:20.899Z,95284.38
2022-09-22T19:22:50.374Z,95287.09
2022-09-22T19:25:20.039Z,95288.03
2022-09-22T19:27:47.824Z,95280.00
2022-09-22T19:30:20.518Z,95274.91
2022-09-22T19:32:50.451Z,95271.59
2022-09-22T19:35:18.200Z,95272.56
2022-09-22T19:37:45.909Z,95274.66
2022-09-22T19:40:18.568Z,95269.31
2022-09-22T19:42:46.645Z,95272.59
2022-09-22T19:45:15.732Z,95265.66
2022-09-22T19:47:43.323Z,95268.38
2022-09-22T19:50:10.928Z,95266.69
2022-09-22T19:52:38.700Z,95273.22
2022-09-22T19:55:07.396Z,95262.94
2022-09-22T19:57:36.298Z,95262.81
2022-09-22T20:00:04.013Z,95268.00
2022-09-22T20:02:33.037Z,95271.16
2022-09-22T20:05:00.602Z,95269.38
2022-09-22T20:07:28.459Z,95269.81
2022-09-22T20:09:56.408Z,95274.19
2022-09-22T20:12:23.972Z,95262.59
2022-09-22T20:14:51.729Z,95263.84
2022-09-22T20:17:19.294Z,95263.03
2022-09-22T20:19:48.227Z,95258.88
2022-09-22T20:22:22.798Z,95261.59
2022-09-22T20:24:54.032Z,95261.81
2022-09-22T20:27:25.973Z,95252.72
2022-09-22T20:29:56.976Z,95252.81
2022-09-22T20:32:26.130Z,95253.03
2022-09-22T20:34:55.943Z,95252.91
2022-09-22T20:37:24.405Z,95257.44
2022-09-22T20:39:52.105Z,95259.28
2022-09-22T20:42:19.755Z,95254.31
2022-09-22T20:44:49.077Z,95246.16
2022-09-22T20:47:18.574Z,95253.50
2022-09-22T20:49:51.357Z,95246.56
2022-09-22T20:52:21.540Z,95246.03
2022-09-22T20:54:49.725Z,95251.69
2022-09-22T20:57:18.036Z,95251.78
2022-09-22T20:59:46.349Z,95253.53
2022-09-22T21:02:15.126Z,95255.66
2022-09-22T21:04:43.113Z,95253.38
2022-09-22T21:07:11.229Z,95246.59
2022-09-22T21:09:57.662Z,95240.13
2022-09-22T21:12:30.689Z,95244.41
2022-09-22T21:14:58.917Z,95230.84
2022-09-22T21:17:27.681Z,95236.50
2022-09-22T21:19:56.345Z,95233.66
2022-09-22T21:22:24.501Z,95239.31
2022-09-22T21:24:53.986Z,95230.53
2022-09-22T21:27:21.696Z,95230.31
2022-09-22T21:29:49.330Z,95232.56
2022-09-22T21:32:17.216Z,95230.94
2022-09-22T21:34:44.853Z,95219.94
2022-09-22T21:37:12.440Z,95217.03
2022-09-22T21:39:40.114Z,95217.13
2022-09-22T21:42:09.371Z,95220.50
2022-09-22T21:44:37.044Z,95216.94
2022-09-22T21:47:04.975Z,95219.38
2022-09-22T21:49:33.037Z,95204.16
2022-09-22T21:52:01.393Z,95205.44
2022-09-22T21:54:31.177Z,95205.81
2022-09-22T21:56:59.032Z,95198.66
2022-09-22T21:59:29.135Z,95200.91
2022-09-22T22:01:57.276Z,95204.53
2022-09-22T22:04:25.413Z,95196.84
2022-09-22T22:06:53.171Z,95201.03
2022-09-22T22:09:22.527Z,95204.47
2022-09-22T22:11:57.384Z,95201.75
2022-09-22T22:14:27.212Z,95198.88
2022-09-22T22:16:56.602Z,95201.41
2022-09-22T22:19:26.999Z,95204.38
2022-09-22T22:21:56.164Z,95195.47
2022-09-22T22:24:39.391Z,95189.44
2022-09-22T22:27:10.198Z,95192.44
2022-09-22T22:29:39.624Z,95193.03
2022-09-22T22:32:10.401Z,95184.91
2022-09-22T22:34:38.265Z,95195.16
2022-09-22T22:37:10.051Z,95192.28
2022-09-22T22:39:37.766Z,95186.41
2022-09-22T22:42:06.203Z,95189.19
2022-09-22T22:44:35.135Z,95185.88
2022-09-22T22:47:02.872Z,95190.44
2022-09-22T22:49:32.561Z,95189.84
2022-09-22T22:52:00.262Z,95181.94
2022-09-22T22:54:27.941Z,95188.44
2022-09-22T22:56:55.564Z,95188.88
2022-09-22T22:59:23.292Z,95190.56
2022-09-22T23:01:51.017Z,95186.66
2022-09-22T23:04:18.691Z,95192.31
2022-09-22T23:06:48.470Z,95188.13
2022-09-22T23:09:17.787Z,95185.28
2022-09-22T23:11:46.354Z,95181.56
2022-09-22T23:14:16.139Z,95186.16
2022-09-22T23:16:45.675Z,95180.81
2022-09-22T23:19:14.853Z,95182.50
2022-09-22T23:21:42.627Z,95178.41
2022-09-22T23:24:15.363Z,95173.44
2022-09-22T23:26:43.032Z,95173.50
2022-09-22T23:29:10.853Z,95169.75
2022-09-22T23:31:38.553Z,95173.38
2022-09-22T23:34:06.237Z,95169.59
2022-09-22T23:36:33.978Z,95173.09
2022-09-22T23:39:03.524Z,95175.16
2022-09-22T23:41:34.712Z,95178.16
2022-09-22T23:44:03.527Z,95177.31
2022-09-22T23:46:31.754Z,95177.09
2022-09-22T23:49:00.494Z,95172.50
2022-09-22T23:51:28.278Z,95171.09
2022-09-22T23:53:56.249Z,95175.72
2022-09-22T23:56:24.162Z,95170.56
2022-09-22T23:58:53.788Z,95170.56
